createdAt,value
2019-06-15T00:01:22.806Z,100923.08
2019-06-15T00:03:49.853Z,100916.87
2019-06-15T00:06:18.629Z,100922.64
2019-06-15T00:08:45.837Z,100928.41
2019-06-15T00:11:12.847Z,100930.61
2019-06-15T00:13:39.901Z,100923.51
2019-06-15T00:16:06.947Z,100902.21
2019-06-15T00:18:34.020Z,100887.14
2019-06-15T00:21:01.087Z,100890.23
2019-06-15T00:23:28.005Z,100888.47
2019-06-15T00:25:54.992Z,100899.99
2019-06-15T00:28:23.794Z,100902.20
2019-06-15T00:30:50.808Z,100897.76
2019-06-15T00:33:17.895Z,100888.91
2019-06-15T00:35:44.870Z,100879.59
2019-06-15T00:38:11.810Z,100865.41
2019-06-15T00:40:38.857Z,100856.53
2019-06-15T00:43:05.844Z,100846.77
2019-06-15T00:45:32.821Z,100841.02
2019-06-15T00:48:01.364Z,100837.00
2019-06-15T00:50:28.348Z,100828.59
2019-06-15T00:52:55.291Z,100806.42
2019-06-15T00:55:23.575Z,100796.24
2019-06-15T00:57:50.677Z,100772.30
2019-06-15T01:00:17.803Z,100759.92
2019-06-15T01:02:44.759Z,100753.31
2019-06-15T01:05:13.849Z,100742.25
2019-06-15T01:07:40.786Z,100730.32
2019-06-15T01:10:08.059Z,100728.56
2019-06-15T01:12:35.020Z,100734.32
2019-06-15T01:15:02.177Z,100761.37
2019-06-15T01:17:29.232Z,100766.67
2019-06-15T01:19:56.241Z,100774.22
2019-06-15T01:22:23.287Z,100782.67
2019-06-15T01:25:04.729Z,100786.25
2019-06-15T01:27:21.066Z,100812.41
2019-06-15T01:32:31.659Z,100822.12
2019-06-15T01:34:58.713Z,100831.03
2019-06-15T01:37:25.660Z,100838.59
2019-06-15T01:39:52.784Z,100838.17
2019-06-15T01:42:19.756Z,100850.14
2019-06-15T01:44:46.759Z,100839.95
2019-06-15T01:47:13.749Z,100844.83
2019-06-15T01:49:40.718Z,100846.61
2019-06-15T01:52:07.684Z,100850.59
2019-06-15T01:54:34.669Z,100844.38
2019-06-15T01:57:01.600Z,100847.47
2019-06-15T01:59:28.611Z,100850.56
2019-06-15T02:01:55.542Z,100852.33
2019-06-15T02:04:22.535Z,100858.11
2019-06-15T02:06:51.277Z,100863.42
2019-06-15T02:09:18.268Z,100856.77
2019-06-15T02:11:45.305Z,100843.49
2019-06-15T02:14:12.235Z,100846.16
2019-06-15T02:16:39.216Z,100844.39
2019-06-15T02:19:06.155Z,100835.09
2019-06-15T02:21:33.087Z,100832.87
2019-06-15T02:24:00.064Z,100830.20
2019-06-15T02:26:26.998Z,100822.66
2019-06-15T02:28:53.954Z,100827.98
2019-06-15T02:31:22.223Z,100824.44
2019-06-15T02:33:49.202Z,100830.64
2019-06-15T02:36:16.119Z,100838.16
2019-06-15T02:38:43.129Z,100849.23
2019-06-15T02:41:10.386Z,100864.30
2019-06-15T02:43:37.397Z,100882.92
2019-06-15T02:46:04.376Z,100858.55
2019-06-15T02:48:31.311Z,100813.36
2019-06-15T02:50:58.753Z,100781.89
2019-06-15T02:53:25.724Z,100769.49
2019-06-15T02:56:01.972Z,100763.73
2019-06-15T02:58:35.244Z,100763.73
2019-06-15T03:01:20.484Z,100761.98
2019-06-15T03:03:47.469Z,100757.56
2019-06-15T03:06:14.819Z,100745.16
2019-06-15T03:08:42.345Z,100736.75
2019-06-15T03:11:09.747Z,100738.09
2019-06-15T03:13:36.675Z,100732.34
2019-06-15T03:16:04.507Z,100741.20
2019-06-15T03:18:31.678Z,100747.84
2019-06-15T03:20:58.957Z,100755.37
2019-06-15T03:23:25.907Z,100764.65
2019-06-15T03:26:04.576Z,100785.91
2019-06-15T03:28:22.389Z,100789.91
2019-06-15T03:30:49.441Z,100793.92
2019-06-15T03:33:16.451Z,100789.94
2019-06-15T03:35:43.375Z,100789.05
2019-06-15T03:38:10.318Z,100785.07
2019-06-15T03:40:37.305Z,100778.87
2019-06-15T03:43:04.268Z,100796.58
2019-06-15T03:45:31.205Z,100810.73
2019-06-15T03:47:59.668Z,100839.97
2019-06-15T03:50:26.599Z,100884.26
2019-06-15T03:52:53.544Z,100912.20
2019-06-15T03:55:20.534Z,100918.40
2019-06-15T03:57:47.483Z,100900.67
2019-06-15T04:00:54.557Z,100866.98
2019-06-15T04:03:21.506Z,100874.95
2019-06-15T04:05:48.445Z,100887.37
2019-06-15T04:08:15.426Z,100893.12
2019-06-15T04:10:42.353Z,100892.69
2019-06-15T04:13:09.273Z,100885.60
2019-06-15T04:15:36.591Z,100894.02
2019-06-15T04:18:03.772Z,100892.70
2019-06-15T04:20:30.721Z,100888.27
2019-06-15T04:22:57.710Z,100876.75
2019-06-15T04:25:24.643Z,100874.54
2019-06-15T04:27:51.592Z,100883.84
2019-06-15T04:30:18.902Z,100879.83
2019-06-15T04:32:45.902Z,100875.39
2019-06-15T04:35:16.384Z,100881.59
2019-06-15T04:37:43.354Z,100880.27
2019-06-15T04:40:10.579Z,100867.87
2019-06-15T04:42:37.523Z,100869.20
2019-06-15T04:45:05.742Z,100874.96
2019-06-15T04:47:32.715Z,100874.08
2019-06-15T04:49:59.763Z,100874.52
2019-06-15T04:52:26.735Z,100886.03
2019-06-15T04:54:53.716Z,100880.27
2019-06-15T04:57:21.180Z,100873.19
2019-06-15T04:59:48.112Z,100877.17
2019-06-15T05:02:15.101Z,100875.40
2019-06-15T05:04:42.154Z,100875.84
2019-06-15T05:07:09.099Z,100879.38
2019-06-15T05:09:36.193Z,100872.30
2019-06-15T05:12:04.223Z,100867.87
2019-06-15T05:14:31.162Z,100867.87
2019-06-15T05:16:58.138Z,100865.66
2019-06-15T05:19:25.065Z,100872.77
2019-06-15T05:21:52.041Z,100869.67
2019-06-15T05:24:18.973Z,100875.86
2019-06-15T05:26:45.906Z,100882.50
2019-06-15T05:29:13.161Z,100877.63
2019-06-15T05:31:40.062Z,100879.39
2019-06-15T05:34:07.062Z,100872.75
2019-06-15T05:36:34.143Z,100867.42
2019-06-15T05:39:03.219Z,100868.34
2019-06-15T05:41:30.159Z,100863.44
2019-06-15T05:44:05.022Z,100863.87
2019-06-15T05:46:31.952Z,100865.64
2019-06-15T05:48:58.860Z,100859.42
2019-06-15T05:51:25.831Z,100860.33
2019-06-15T05:53:52.773Z,100874.94
2019-06-15T05:56:19.717Z,100881.13
2019-06-15T05:58:46.712Z,100891.72
2019-06-15T06:01:31.964Z,100886.83
2019-06-15T06:03:59.150Z,100898.32
2019-06-15T06:06:26.133Z,100898.75
2019-06-15T06:08:53.077Z,100891.66
2019-06-15T06:11:20.180Z,100893.45
2019-06-15T06:13:47.158Z,100896.09
2019-06-15T06:16:14.245Z,100898.31
2019-06-15T06:18:41.283Z,100894.28
2019-06-15T06:21:08.259Z,100892.48
2019-06-15T06:23:35.206Z,100892.03
2019-06-15T06:26:08.020Z,100894.63
2019-06-15T06:28:34.983Z,100899.90
2019-06-15T06:31:01.947Z,100902.99
2019-06-15T06:33:28.924Z,100903.45
2019-06-15T06:35:55.896Z,100901.23
2019-06-15T06:38:24.447Z,100905.20
2019-06-15T06:40:51.398Z,100908.69
2019-06-15T06:43:18.388Z,100909.09
2019-06-15T06:45:45.347Z,100914.39
2019-06-15T06:48:12.296Z,100920.63
2019-06-15T06:50:41.298Z,100920.61
2019-06-15T06:53:08.157Z,100910.80
2019-06-15T06:55:35.107Z,100914.74
2019-06-15T06:58:03.671Z,100919.53
2019-06-15T07:00:30.626Z,100907.95
2019-06-15T07:02:57.655Z,100915.06
2019-06-15T07:05:24.714Z,100910.09
2019-06-15T07:07:51.674Z,100901.94
2019-06-15T07:10:18.608Z,100902.70
2019-06-15T07:12:45.605Z,100901.29
2019-06-15T07:15:15.016Z,100909.24
2019-06-15T07:17:42.001Z,100907.06
2019-06-15T07:20:09.293Z,100909.35
2019-06-15T07:22:36.420Z,100900.11
2019-06-15T07:25:03.775Z,100906.73
2019-06-15T07:27:30.914Z,100905.34
2019-06-15T07:29:57.845Z,100906.61
2019-06-15T07:32:24.805Z,100903.45
2019-06-15T07:34:53.829Z,100903.41
2019-06-15T07:37:20.795Z,100907.33
2019-06-15T07:39:47.874Z,100917.02
2019-06-15T07:42:14.896Z,100913.34
2019-06-15T07:44:45.327Z,100923.19
2019-06-15T07:47:27.793Z,100928.19
2019-06-15T07:49:54.902Z,100931.89
2019-06-15T07:52:21.852Z,100934.62
2019-06-15T07:54:48.945Z,100944.39
2019-06-15T07:57:15.883Z,100936.91
2019-06-15T07:59:42.861Z,100941.43
2019-06-15T08:02:09.826Z,100938.38
2019-06-15T08:04:36.902Z,100942.45
2019-06-15T08:07:05.239Z,100949.63
2019-06-15T08:09:35.040Z,100949.66
2019-06-15T08:12:02.001Z,100958.12
2019-06-15T08:14:29.064Z,100971.45
2019-06-15T08:16:56.141Z,100991.92
2019-06-15T08:19:23.096Z,101002.77
2019-06-15T08:21:50.082Z,100994.05
2019-06-15T08:24:17.228Z,100986.16
2019-06-15T08:26:44.192Z,100987.95
2019-06-15T08:29:11.159Z,100986.62
2019-06-15T08:31:38.138Z,100987.06
2019-06-15T08:34:05.151Z,100993.27
2019-06-15T08:36:32.085Z,100996.36
2019-06-15T08:38:59.124Z,101003.89
2019-06-15T08:41:26.057Z,101007.42
2019-06-15T08:43:53.019Z,101002.06
2019-06-15T08:46:20.057Z,101024.67
2019-06-15T08:48:47.134Z,101041.92
2019-06-15T08:51:14.103Z,101046.25
2019-06-15T08:53:41.153Z,101052.02
2019-06-15T08:56:08.128Z,101056.83
2019-06-15T08:58:35.361Z,101058.47
2019-06-15T09:01:02.410Z,101074.06
2019-06-15T09:03:29.370Z,101080.72
2019-06-15T09:05:56.320Z,101082.52
2019-06-15T09:08:29.726Z,101086.06
2019-06-15T09:10:56.690Z,101099.33
2019-06-15T09:13:24.766Z,101104.72
2019-06-15T09:15:52.374Z,101098.95
2019-06-15T09:18:20.038Z,101105.16
2019-06-15T09:20:48.282Z,101109.13
2019-06-15T09:23:15.281Z,101112.65
2019-06-15T09:25:42.260Z,101116.20
2019-06-15T09:28:09.204Z,101109.95
2019-06-15T09:30:36.251Z,101121.02
2019-06-15T09:33:03.522Z,101120.48
2019-06-15T09:35:30.517Z,101122.13
2019-06-15T09:37:57.494Z,101124.35
2019-06-15T09:40:24.465Z,101133.25
2019-06-15T09:42:51.415Z,101129.63
2019-06-15T09:45:18.455Z,101119.41
2019-06-15T09:47:45.452Z,101116.68
2019-06-15T09:50:12.714Z,101121.44
2019-06-15T09:52:39.653Z,101121.38
2019-06-15T09:55:06.921Z,101122.59
2019-06-15T09:57:33.857Z,101129.17
2019-06-15T10:00:00.857Z,101137.91
2019-06-15T10:02:27.833Z,101139.52
2019-06-15T10:04:54.826Z,101161.58
2019-06-15T10:07:21.805Z,101158.59
2019-06-15T10:09:48.757Z,101160.96
2019-06-15T10:12:15.773Z,101171.00
2019-06-15T10:14:42.736Z,101174.90
2019-06-15T10:17:09.700Z,101180.27
2019-06-15T10:19:36.666Z,101187.95
2019-06-15T10:22:03.733Z,101197.28
2019-06-15T10:24:30.643Z,101196.87
2019-06-15T10:26:57.611Z,101211.05
2019-06-15T10:29:24.578Z,101204.92
2019-06-15T10:31:51.603Z,101206.67
2019-06-15T10:34:18.594Z,101199.69
2019-06-15T10:37:10.304Z,101207.05
2019-06-15T10:39:38.356Z,101209.82
2019-06-15T10:42:05.310Z,101212.09
2019-06-15T10:44:32.309Z,101235.14
2019-06-15T10:46:59.284Z,101226.54
2019-06-15T10:49:26.271Z,101227.95
2019-06-15T10:51:53.249Z,101232.30
2019-06-15T10:54:20.245Z,101232.44
2019-06-15T10:56:47.198Z,101236.91
2019-06-15T10:59:17.671Z,101240.94
2019-06-15T11:01:44.655Z,101239.45
2019-06-15T11:04:13.397Z,101246.02
2019-06-15T11:06:40.461Z,101249.69
2019-06-15T11:09:07.830Z,101253.43
2019-06-15T11:11:34.834Z,101254.59
2019-06-15T11:14:01.921Z,101250.70
2019-06-15T11:16:29.158Z,101254.74
2019-06-15T11:18:56.128Z,101260.13
2019-06-15T11:21:24.291Z,101263.11
2019-06-15T11:23:51.267Z,101261.88
2019-06-15T11:26:18.196Z,101257.92
2019-06-15T11:28:46.278Z,101269.60
2019-06-15T11:31:13.238Z,101275.80
2019-06-15T11:33:40.325Z,101275.80
2019-06-15T11:36:07.320Z,101274.89
2019-06-15T11:38:34.321Z,101275.88
2019-06-15T11:41:01.349Z,101279.84
2019-06-15T11:43:28.350Z,101282.50
2019-06-15T11:45:55.307Z,101280.78
2019-06-15T11:48:22.426Z,101287.28
2019-06-15T11:54:30.190Z,101289.33
2019-06-15T11:56:57.156Z,101292.62
2019-06-15T11:59:24.126Z,101293.34
2019-06-15T12:01:51.106Z,101299.00
2019-06-15T12:04:18.323Z,101304.16
2019-06-15T12:07:43.592Z,101303.45
2019-06-15T12:10:11.105Z,101304.40
2019-06-15T12:12:38.048Z,101301.48
2019-06-15T12:15:05.837Z,101300.59
2019-06-15T12:17:32.834Z,101301.28
2019-06-15T12:20:01.020Z,101296.17
2019-06-15T12:25:06.910Z,101295.37
2019-06-15T12:27:35.676Z,101297.69
2019-06-15T12:30:03.152Z,101301.52
2019-06-15T12:32:30.145Z,101298.19
2019-06-15T12:34:57.111Z,101301.05
2019-06-15T12:37:24.073Z,101305.73
2019-06-15T12:39:51.069Z,101302.38
2019-06-15T12:45:59.028Z,101317.60
2019-06-15T12:48:26.007Z,101305.88
2019-06-15T12:50:53.967Z,101303.08
2019-06-15T12:53:20.931Z,101304.78
2019-06-15T12:55:47.900Z,101306.17
2019-06-15T12:58:14.901Z,101304.03
2019-06-15T13:00:41.948Z,101311.69
2019-06-15T13:03:08.891Z,101320.86
2019-06-15T13:05:35.885Z,101317.72
2019-06-15T13:08:03.101Z,101315.31
2019-06-15T13:10:30.257Z,101315.50
2019-06-15T13:12:57.338Z,101314.27
2019-06-15T13:15:24.398Z,101316.30
2019-06-15T13:17:51.358Z,101320.73
2019-06-15T13:20:18.780Z,101318.22
2019-06-15T13:22:45.743Z,101324.01
2019-06-15T13:25:12.840Z,101325.41
2019-06-15T13:27:39.842Z,101313.88
2019-06-15T13:30:06.888Z,101306.39
2019-06-15T13:32:33.862Z,101307.91
2019-06-15T13:35:00.947Z,101314.95
2019-06-15T13:37:41.298Z,101315.47
2019-06-15T13:39:58.116Z,101317.39
2019-06-15T13:42:25.207Z,101316.87
2019-06-15T13:44:52.183Z,101317.08
2019-06-15T13:47:19.131Z,101317.81
2019-06-15T13:49:46.235Z,101316.19
2019-06-15T13:52:13.982Z,101317.81
2019-06-15T13:54:40.931Z,101323.38
2019-06-15T13:57:07.935Z,101333.22
2019-06-15T13:59:34.962Z,101325.95
2019-06-15T14:02:01.901Z,101338.59
2019-06-15T14:04:28.926Z,101333.33
2019-06-15T14:06:55.888Z,101332.71
2019-06-15T14:09:22.846Z,101341.16
2019-06-15T14:11:49.821Z,101342.58
2019-06-15T14:14:16.760Z,101343.08
2019-06-15T14:16:43.704Z,101341.01
2019-06-15T14:19:10.693Z,101339.88
2019-06-15T14:21:37.629Z,101340.44
2019-06-15T14:24:04.666Z,101338.73
2019-06-15T14:26:31.625Z,101350.73
2019-06-15T14:28:58.600Z,101336.20
2019-06-15T14:31:25.620Z,101343.52
2019-06-15T14:33:52.556Z,101338.59
2019-06-15T14:36:19.614Z,101343.30
2019-06-15T14:38:46.596Z,101335.13
2019-06-15T14:41:13.717Z,101341.08
2019-06-15T14:43:40.728Z,101340.27
2019-06-15T14:46:08.931Z,101341.92
2019-06-15T14:48:35.908Z,101346.62
2019-06-15T14:51:03.012Z,101341.19
2019-06-15T14:53:30.033Z,101342.29
2019-06-15T14:55:56.955Z,101351.00
2019-06-15T14:58:26.078Z,101353.61
2019-06-15T15:00:52.843Z,101352.66
2019-06-15T15:03:19.793Z,101350.16
2019-06-15T15:05:46.769Z,101345.41
2019-06-15T15:08:13.826Z,101345.08
2019-06-15T15:10:41.065Z,101348.99
2019-06-15T15:13:07.969Z,101346.64
2019-06-15T15:15:36.423Z,101340.69
2019-06-15T15:18:03.645Z,101348.28
2019-06-15T15:20:30.585Z,101349.14
2019-06-15T15:22:57.594Z,101357.81
2019-06-15T15:25:31.991Z,101347.57
2019-06-15T15:28:07.365Z,101343.61
2019-06-15T15:30:38.289Z,101342.97
2019-06-15T15:33:06.784Z,101334.72
2019-06-15T15:35:33.990Z,101327.77
2019-06-15T15:38:37.721Z,101335.16
2019-06-15T15:41:06.775Z,101333.53
2019-06-15T15:43:33.573Z,101334.00
2019-06-15T15:49:41.513Z,101338.56
2019-06-15T15:52:51.623Z,101337.42
2019-06-15T15:55:18.856Z,101337.48
2019-06-15T15:57:46.842Z,101334.41
2019-06-15T16:01:09.655Z,101331.81
2019-06-15T16:03:37.107Z,101322.70
2019-06-15T16:06:04.180Z,101328.34
2019-06-15T16:08:31.165Z,101326.20
2019-06-15T16:10:58.164Z,101329.30
2019-06-15T16:13:26.867Z,101328.92
2019-06-15T16:15:54.060Z,101325.72
2019-06-15T16:18:21.041Z,101314.70
2019-06-15T16:20:47.971Z,101327.31
2019-06-15T16:23:16.093Z,101328.11
2019-06-15T16:25:43.368Z,101324.17
2019-06-15T16:28:10.306Z,101325.43
2019-06-15T16:31:00.470Z,101327.34
2019-06-15T16:33:07.778Z,101334.28
2019-06-15T16:35:36.154Z,101338.19
2019-06-15T16:38:36.427Z,101340.88
2019-06-15T16:41:02.671Z,101343.48
2019-06-15T16:43:29.686Z,101348.06
2019-06-15T16:45:57.055Z,101341.50
2019-06-15T16:48:26.098Z,101338.15
2019-06-15T16:50:53.262Z,101341.66
2019-06-15T16:53:20.233Z,101336.20
2019-06-15T16:55:47.416Z,101336.41
2019-06-15T16:58:16.182Z,101346.16
2019-06-15T17:00:43.249Z,101338.84
2019-06-15T17:03:20.681Z,101339.41
2019-06-15T17:05:39.130Z,101340.29
2019-06-15T17:08:07.076Z,101346.48
2019-06-15T17:10:56.099Z,101342.30
2019-06-15T17:13:40.913Z,101351.89
2019-06-15T17:16:07.915Z,101348.69
2019-06-15T17:18:36.493Z,101347.42
2019-06-15T17:21:03.748Z,101344.92
2019-06-15T17:23:30.712Z,101338.91
2019-06-15T17:25:57.758Z,101342.03
2019-06-15T17:28:26.668Z,101337.38
2019-06-15T17:30:56.223Z,101333.52
2019-06-15T17:33:34.385Z,101333.64
2019-06-15T17:35:58.977Z,101338.82
2019-06-15T17:38:20.733Z,101338.27
2019-06-15T17:40:47.762Z,101334.23
2019-06-15T17:43:16.086Z,101340.16
2019-06-15T17:45:43.329Z,101329.74
2019-06-15T17:48:17.111Z,101330.77
2019-06-15T17:50:44.000Z,101326.63
2019-06-15T17:53:10.969Z,101329.32
2019-06-15T17:55:38.083Z,101319.73
2019-06-15T17:58:06.483Z,101328.73
2019-06-15T18:00:41.515Z,101331.95
2019-06-15T18:03:08.608Z,101332.66
2019-06-15T18:05:41.855Z,101327.27
2019-06-15T18:08:08.942Z,101327.78
2019-06-15T18:10:36.337Z,101327.97
2019-06-15T18:13:04.102Z,101331.66
2019-06-15T18:19:46.975Z,101335.50
2019-06-15T18:22:16.785Z,101337.53
2019-06-15T18:24:43.027Z,101344.61
2019-06-15T18:27:10.140Z,101340.80
2019-06-15T18:29:37.269Z,101337.45
2019-06-15T18:32:06.313Z,101340.30
2019-06-15T18:34:33.191Z,101344.86
2019-06-15T18:37:00.163Z,101349.49
2019-06-15T18:39:27.130Z,101344.69
2019-06-15T18:41:56.002Z,101343.91
2019-06-15T18:44:26.951Z,101345.81
2019-06-15T18:46:56.153Z,101344.53
2019-06-15T18:49:22.974Z,101344.26
2019-06-15T18:51:50.070Z,101343.62
2019-06-15T18:54:17.034Z,101355.86
2019-06-15T18:56:45.938Z,101359.59
2019-06-15T19:01:39.671Z,101363.48
2019-06-15T19:04:08.158Z,101360.92
2019-06-15T19:06:37.024Z,101370.41
2019-06-15T19:09:07.082Z,101371.89
2019-06-15T19:11:34.089Z,101375.11
2019-06-15T19:14:01.209Z,101379.59
2019-06-15T19:16:28.180Z,101376.08
2019-06-15T19:18:56.681Z,101379.70
2019-06-15T19:21:26.088Z,101382.87
2019-06-15T19:23:52.770Z,101385.59
2019-06-15T19:26:19.937Z,101390.13
2019-06-15T19:28:47.075Z,101390.63
2019-06-15T19:31:14.233Z,101391.51
2019-06-15T19:33:41.351Z,101393.79
2019-06-15T19:36:08.363Z,101394.28
2019-06-15T19:38:36.164Z,101396.08
2019-06-15T19:41:03.704Z,101395.64
2019-06-15T19:43:30.641Z,101396.11
2019-06-15T19:45:57.803Z,101393.45
2019-06-15T19:48:26.831Z,101400.13
2019-06-15T19:50:56.451Z,101402.80
2019-06-15T19:53:22.863Z,101409.48
2019-06-15T19:55:49.898Z,101417.49
2019-06-15T19:58:16.899Z,101425.90
2019-06-15T20:00:46.532Z,101420.13
2019-06-15T20:03:12.735Z,101435.66
2019-06-15T20:05:39.724Z,101439.20
2019-06-15T20:08:07.286Z,101439.59
2019-06-15T20:10:36.983Z,101444.91
2019-06-15T20:13:03.295Z,101447.56
2019-06-15T20:15:30.365Z,101438.66
2019-06-15T20:17:57.347Z,101443.09
2019-06-15T20:20:26.679Z,101437.31
2019-06-15T20:22:55.971Z,101432.42
2019-06-15T20:25:41.341Z,101438.62
2019-06-15T20:28:08.344Z,101442.58
2019-06-15T20:30:37.070Z,101445.20
2019-06-15T20:33:04.409Z,101454.89
2019-06-15T20:35:31.391Z,101460.62
2019-06-15T20:37:58.411Z,101457.04
2019-06-15T20:40:26.734Z,101461.01
2019-06-15T20:42:56.501Z,101456.55
2019-06-15T20:45:22.967Z,101468.47
2019-06-15T20:47:50.052Z,101468.38
2019-06-15T20:50:27.965Z,101469.69
2019-06-15T20:52:47.198Z,101471.86
2019-06-15T20:55:16.320Z,101476.67
2019-06-15T20:57:45.967Z,101477.00
2019-06-15T21:00:12.817Z,101481.82
2019-06-15T21:02:39.897Z,101486.18
2019-06-15T21:05:07.376Z,101489.62
2019-06-15T21:07:36.135Z,101503.75
2019-06-15T21:10:07.150Z,101505.00
2019-06-15T21:12:37.277Z,101509.83
2019-06-15T21:15:07.166Z,101512.95
2019-06-15T21:17:33.956Z,101515.69
2019-06-15T21:20:00.996Z,101517.95
2019-06-15T21:22:28.016Z,101527.80
2019-06-15T21:25:53.357Z,101519.86
2019-06-15T21:28:20.761Z,101523.47
2019-06-15T21:30:47.918Z,101527.06
2019-06-15T21:33:15.007Z,101520.89
2019-06-15T21:35:49.850Z,101520.95
2019-06-15T21:38:11.915Z,101527.64
2019-06-15T21:40:40.673Z,101524.52
2019-06-15T21:43:07.674Z,101527.50
2019-06-15T21:45:36.869Z,101534.56
2019-06-15T21:48:06.550Z,101529.69
2019-06-15T21:50:33.422Z,101537.66
2019-06-15T21:53:00.659Z,101544.25
2019-06-15T21:55:27.813Z,101546.45
2019-06-15T21:57:56.415Z,101546.87
2019-06-15T22:00:38.710Z,101543.73
2019-06-15T22:03:08.903Z,101537.89
2019-06-15T22:05:36.868Z,101544.47
2019-06-15T22:08:06.485Z,101548.37
2019-06-15T22:10:35.959Z,101546.95
2019-06-15T22:13:02.551Z,101546.42
2019-06-15T22:15:29.549Z,101547.67
2019-06-15T22:17:56.464Z,101545.41
2019-06-15T22:20:23.598Z,101552.03
2019-06-15T22:22:50.558Z,101556.84
2019-06-15T22:25:17.511Z,101552.85
2019-06-15T22:27:46.902Z,101550.66
2019-06-15T22:30:16.857Z,101548.44
2019-06-15T22:32:43.409Z,101555.05
2019-06-15T22:35:11.673Z,101560.27
2019-06-15T22:37:38.678Z,101557.53
2019-06-15T22:40:07.718Z,101558.84
2019-06-15T22:42:37.484Z,101567.64
2019-06-15T22:45:06.651Z,101566.69
2019-06-15T22:47:36.151Z,101575.89
2019-06-15T22:50:03.079Z,101577.61
2019-06-15T22:52:31.888Z,101573.56
2019-06-15T22:54:58.909Z,101573.09
2019-06-15T22:57:26.190Z,101584.55
2019-06-15T22:59:53.324Z,101583.63
2019-06-15T23:02:20.318Z,101585.30
2019-06-15T23:04:47.295Z,101592.23
2019-06-15T23:07:16.203Z,101596.17
2019-06-15T23:09:43.256Z,101596.05
2019-06-15T23:12:10.200Z,101599.52
2019-06-15T23:14:37.369Z,101599.06
2019-06-15T23:17:07.177Z,101604.31
2019-06-15T23:19:33.466Z,101602.99
2019-06-15T23:22:00.589Z,101609.59
2019-06-15T23:24:27.877Z,101608.25
2019-06-15T23:26:58.191Z,101608.70
2019-06-15T23:29:27.148Z,101606.92
2019-06-15T23:31:57.026Z,101607.78
2019-06-15T23:34:23.114Z,101610.03
2019-06-15T23:36:57.032Z,101611.35
2019-06-15T23:39:22.485Z,101609.98
2019-06-15T23:41:49.451Z,101610.84
2019-06-15T23:44:17.806Z,101612.15
2019-06-15T23:46:46.940Z,101611.28
2019-06-15T23:49:16.256Z,101617.88
2019-06-15T23:51:42.625Z,101617.42
2019-06-15T23:54:09.563Z,101626.73
2019-06-15T23:56:36.970Z,101630.69
2019-06-15T23:59:06.737Z,101637.31
